Time;durP1;ratioP1;P1;durP2;ratioP2;P2;SDS_P1;SDS_P2;PMS_P1;PMS_P2;Temp;Humidity;BMP_temperature;BMP_pressure;BME280_temperature;BME280_humidity;BME280_pressure;Samples;Min_cycle;Max_cycle;Signal;HPM_P1;HPM_P2
2022/07/25 00:03:19;;;;;;;16.25;13.80;;;16.30;99.90;;;;;;8285759;28;20110;-79
2022/07/25 00:07:20;;;;;;;15.10;12.88;;;16.20;99.90;;;;;;8290987;28;20113;-79
2022/07/25 00:11:21;;;;;;;15.02;12.88;;;16.10;99.90;;;;;;8292484;28;20022;-80
2022/07/25 00:15:21;;;;;;;15.07;13.30;;;16.10;99.90;;;;;;8291602;28;20029;-79
2022/07/25 00:19:22;;;;;;;17.00;13.15;;;16.10;99.90;;;;;;8290627;28;20045;-79
2022/07/25 00:23:22;;;;;;;15.50;13.20;;;16.00;99.90;;;;;;8290808;28;20029;-77
2022/07/25 00:27:23;;;;;;;19.63;14.98;;;15.80;99.90;;;;;;8294209;28;20057;-79
2022/07/25 00:31:23;;;;;;;16.00;13.63;;;15.70;99.90;;;;;;8291904;28;20030;-79
2022/07/25 00:35:24;;;;;;;18.85;14.50;;;15.50;99.90;;;;;;8297196;28;20026;-79
2022/07/25 00:39:24;;;;;;;18.10;14.75;;;15.30;99.90;;;;;;8297028;28;20041;-79
2022/07/25 00:43:25;;;;;;;16.90;14.55;;;15.30;99.90;;;;;;8295634;28;20030;-79
2022/07/25 00:47:25;;;;;;;18.02;14.68;;;15.30;99.90;;;;;;8296397;28;20064;-79
2022/07/25 00:51:26;;;;;;;16.75;14.98;;;15.20;99.90;;;;;;8296645;28;20026;-80
2022/07/25 00:55:28;;;;;;;15.88;13.13;;;15.00;99.90;;;;;;8296971;28;20033;-79
2022/07/25 00:59:28;;;;;;;18.88;14.60;;;15.00;99.90;;;;;;8296819;28;20040;-80
2022/07/25 01:03:29;;;;;;;17.88;15.63;;;14.90;99.90;;;;;;8290554;28;20026;-78
2022/07/25 01:07:30;;;;;;;17.58;13.95;;;15.00;99.90;;;;;;8296145;28;20030;-79
2022/07/25 01:11:31;;;;;;;18.40;15.13;;;15.00;99.90;;;;;;8295957;28;20025;-80
2022/07/25 01:15:32;;;;;;;17.75;14.52;;;14.90;99.90;;;;;;8296693;28;20398;-79
2022/07/25 01:19:32;;;;;;;19.23;15.18;;;14.80;99.90;;;;;;8297342;28;20029;-79
2022/07/25 01:23:33;;;;;;;18.60;15.57;;;14.70;99.90;;;;;;8295715;28;20022;-80
2022/07/25 01:27:33;;;;;;;20.15;15.18;;;14.70;99.90;;;;;;8295565;28;20401;-77
2022/07/25 01:31:34;;;;;;;19.42;16.10;;;14.60;99.90;;;;;;8295075;28;20120;-79
2022/07/25 01:35:35;;;;;;;21.55;17.30;;;14.60;99.90;;;;;;8295884;28;20512;-79
2022/07/25 01:39:35;;;;;;;19.17;14.68;;;14.60;99.90;;;;;;8294461;28;20030;-78
2022/07/25 01:43:36;;;;;;;19.98;16.85;;;14.70;99.90;;;;;;8295159;28;20030;-78
2022/07/25 01:47:37;;;;;;;23.08;16.65;;;14.60;99.90;;;;;;8295021;28;20029;-80
2022/07/25 01:51:37;;;;;;;20.95;15.10;;;14.60;99.90;;;;;;8295743;28;20025;-78
2022/07/25 01:55:38;;;;;;;18.70;15.82;;;14.60;99.90;;;;;;8296467;28;20026;-79
2022/07/25 01:59:39;;;;;;;19.05;16.38;;;14.60;99.90;;;;;;8294303;28;20033;-79
2022/07/25 02:03:40;;;;;;;18.52;16.15;;;14.60;99.90;;;;;;8284508;28;20099;-79
2022/07/25 02:07:40;;;;;;;19.02;15.90;;;14.60;99.90;;;;;;8294002;28;20037;-78
2022/07/25 02:11:41;;;;;;;17.45;14.82;;;14.40;99.90;;;;;;8293678;28;20026;-78
2022/07/25 02:15:42;;;;;;;19.80;15.90;;;14.60;99.90;;;;;;8295113;28;20101;-79
2022/07/25 02:19:43;;;;;;;19.58;16.08;;;14.70;99.90;;;;;;8295402;28;20040;-78
2022/07/25 02:23:44;;;;;;;17.77;15.70;;;14.80;99.90;;;;;;8294221;28;20406;-79
2022/07/25 02:27:44;;;;;;;21.70;16.65;;;14.50;99.90;;;;;;8293444;28;20073;-79
2022/07/25 02:31:46;;;;;;;22.48;18.00;;;14.30;99.90;;;;;;8293224;28;20042;-78
2022/07/25 02:35:46;;;;;;;20.63;16.30;;;14.30;99.90;;;;;;8293689;28;20034;-79
2022/07/25 02:39:47;;;;;;;23.50;16.98;;;14.30;99.90;;;;;;8292966;28;20034;-78
2022/07/25 02:43:47;;;;;;;20.17;17.50;;;14.20;99.90;;;;;;8294111;28;20030;-79
2022/07/25 02:47:48;;;;;;;22.52;18.08;;;14.20;99.90;;;;;;8286785;28;20032;-79
2022/07/25 02:51:48;;;;;;;21.02;16.92;;;14.30;99.90;;;;;;8291259;28;20482;-79
2022/07/25 02:55:49;;;;;;;24.88;18.35;;;14.10;99.90;;;;;;8287200;28;20018;-78
2022/07/25 02:59:50;;;;;;;28.25;20.02;;;14.00;99.90;;;;;;8291918;28;20449;-78
2022/07/25 03:03:50;;;;;;;23.80;18.23;;;14.10;99.90;;;;;;8293286;28;20030;-79
2022/07/25 03:07:51;;;;;;;20.23;16.73;;;14.20;99.90;;;;;;8293488;28;20022;-78
2022/07/25 03:11:51;;;;;;;22.35;18.42;;;14.10;99.90;;;;;;8292269;28;20025;-79
2022/07/25 03:15:52;;;;;;;22.67;17.80;;;13.90;99.90;;;;;;8293448;28;20026;-79
2022/07/25 03:19:53;;;;;;;23.33;18.45;;;13.90;99.90;;;;;;8292003;28;20516;-79
2022/07/25 03:23:53;;;;;;;24.65;18.88;;;13.90;99.90;;;;;;8292225;28;20552;-78
2022/07/25 03:27:55;;;;;;;25.65;20.30;;;13.90;99.90;;;;;;8293122;28;20034;-79
2022/07/25 03:31:55;;;;;;;24.58;19.05;;;13.80;99.90;;;;;;8291952;28;20030;-78
2022/07/25 03:35:56;;;;;;;24.85;19.30;;;13.90;99.90;;;;;;8291923;28;20113;-79
2022/07/25 03:39:56;;;;;;;23.00;18.08;;;13.80;99.90;;;;;;8292686;28;20033;-78
2022/07/25 03:43:57;;;;;;;24.38;19.13;;;13.90;99.90;;;;;;8290697;28;20505;-79
2022/07/25 03:47:58;;;;;;;23.83;18.27;;;13.80;99.90;;;;;;8290799;28;20022;-79
2022/07/25 03:51:58;;;;;;;23.45;18.65;;;13.70;99.90;;;;;;8290673;28;20053;-79
2022/07/25 03:55:59;;;;;;;23.48;18.10;;;13.70;99.90;;;;;;8292638;28;20028;-78
2022/07/25 03:59:59;;;;;;;24.00;18.73;;;13.80;99.90;;;;;;8290382;28;20022;-79
2022/07/25 04:04:01;;;;;;;25.10;19.60;;;13.80;99.90;;;;;;8301769;28;20447;-79
2022/07/25 04:08:01;;;;;;;24.45;18.65;;;13.80;99.90;;;;;;8303440;28;20037;-79
2022/07/25 04:12:02;;;;;;;23.25;18.52;;;14.10;99.90;;;;;;8300644;28;20513;-79
2022/07/25 04:16:03;;;;;;;20.17;16.85;;;14.50;99.90;;;;;;8301035;28;20033;-79
2022/07/25 04:20:05;;;;;;;19.23;16.33;;;14.80;99.90;;;;;;8296911;28;20576;-78
2022/07/25 04:24:06;;;;;;;20.30;16.65;;;15.10;99.90;;;;;;8301854;28;20021;-86
2022/07/25 04:28:07;;;;;;;20.02;16.15;;;15.30;99.90;;;;;;8302926;28;20052;-86
2022/07/25 04:32:07;;;;;;;18.90;16.63;;;15.40;99.90;;;;;;8298687;28;20026;-86
2022/07/25 04:36:09;;;;;;;19.00;15.32;;;15.50;99.90;;;;;;8299010;28;20088;-85
2022/07/25 04:40:10;;;;;;;20.60;15.75;;;15.60;99.90;;;;;;8299619;28;20486;-86
2022/07/25 04:44:10;;;;;;;18.45;14.77;;;16.00;99.90;;;;;;8299535;28;20023;-86
2022/07/25 04:48:11;;;;;;;18.73;15.38;;;16.40;99.90;;;;;;8295913;28;20513;-84
2022/07/25 04:52:11;;;;;;;19.23;14.50;;;16.40;99.90;;;;;;8298279;28;20198;-84
2022/07/25 04:56:12;;;;;;;16.75;13.43;;;16.90;99.90;;;;;;8297398;28;20029;-85
2022/07/25 05:00:14;;;;;;;17.90;14.00;;;18.00;99.90;;;;;;8296323;28;20491;-86
2022/07/25 05:04:14;;;;;;;14.73;13.00;;;19.00;99.90;;;;;;8300123;28;20516;-87
2022/07/25 05:08:15;;;;;;;15.90;12.40;;;19.80;99.90;;;;;;8300383;28;20237;-85
2022/07/25 05:12:15;;;;;;;14.10;12.40;;;20.30;99.90;;;;;;8297671;28;20030;-84
2022/07/25 05:16:16;;;;;;;15.95;12.73;;;21.10;99.90;;;;;;8291604;28;20677;-85
2022/07/25 05:20:16;;;;;;;14.25;12.77;;;21.50;99.90;;;;;;8289244;28;20022;-86
2022/07/25 05:24:17;;;;;;;16.00;12.23;;;21.80;99.90;;;;;;8291416;28;20360;-86
2022/07/25 05:28:18;;;;;;;15.95;12.80;;;22.10;99.90;;;;;;8293699;28;20034;-85
2022/07/25 05:32:18;;;;;;;15.07;13.05;;;22.50;99.90;;;;;;8290136;28;20029;-79
2022/07/25 05:36:19;;;;;;;14.93;12.18;;;23.00;99.90;;;;;;8287420;28;20084;-78
2022/07/25 05:40:20;;;;;;;13.32;11.98;;;23.50;99.90;;;;;;8290583;28;20027;-79
2022/07/25 05:44:20;;;;;;;13.98;12.40;;;23.80;99.90;;;;;;8294109;28;20022;-79
2022/07/25 05:48:21;;;;;;;13.82;12.48;;;23.50;99.90;;;;;;8283741;28;20040;-79
2022/07/25 05:52:21;;;;;;;14.60;12.48;;;24.10;99.90;;;;;;8291410;28;20395;-79
2022/07/25 05:56:22;;;;;;;14.40;11.95;;;24.60;99.90;;;;;;8289185;28;20022;-79
2022/07/25 06:00:23;;;;;;;13.70;12.32;;;24.60;99.90;;;;;;8288639;28;20134;-80
2022/07/25 06:04:23;;;;;;;13.52;12.07;;;25.30;99.90;;;;;;8279069;28;20281;-78
2022/07/25 06:08:26;;;;;;;14.40;11.70;;;25.60;99.90;;;;;;8284149;28;20046;-79
2022/07/25 06:12:26;;;;;;;13.02;11.82;;;25.70;99.90;;;;;;8287189;28;20065;-79
2022/07/25 06:16:27;;;;;;;13.77;12.35;;;25.50;99.90;;;;;;8286871;28;20053;-79
2022/07/25 06:20:28;;;;;;;15.00;13.07;;;26.20;99.90;;;;;;8284447;28;20478;-79
2022/07/25 06:24:28;;;;;;;17.27;13.05;;;26.30;99.90;;;;;;8285384;28;20036;-79
2022/07/25 06:28:29;;;;;;;14.38;12.20;;;26.40;99.90;;;;;;8289364;28;20029;-78
2022/07/25 06:32:29;;;;;;;17.33;13.15;;;26.70;99.90;;;;;;8292590;28;20087;-79
2022/07/25 06:36:30;;;;;;;13.70;12.27;;;27.10;99.90;;;;;;8288234;28;20494;-79
2022/07/25 06:40:30;;;;;;;13.70;12.30;;;27.70;99.90;;;;;;8282454;28;20026;-80
2022/07/25 06:44:32;;;;;;;13.38;12.07;;;28.20;99.90;;;;;;8284005;28;20025;-81
2022/07/25 06:48:33;;;;;;;14.38;13.07;;;28.30;99.90;;;;;;8287829;28;20026;-80
2022/07/25 06:52:34;;;;;;;13.43;12.00;;;29.00;99.90;;;;;;8287977;28;20109;-80
2022/07/25 06:56:34;;;;;;;14.27;12.82;;;28.90;99.90;;;;;;8288958;28;20045;-80
2022/07/25 07:00:35;;;;;;;14.80;13.30;;;28.90;99.90;;;;;;8283967;28;20044;-80
2022/07/25 07:04:35;;;;;;;13.82;12.48;;;29.60;99.90;;;;;;8283946;28;20041;-80
2022/07/25 07:08:36;;;;;;;14.05;12.63;;;29.90;99.90;;;;;;8289666;28;20502;-81
2022/07/25 07:12:37;;;;;;;17.13;12.90;;;29.60;99.90;;;;;;8288415;28;20474;-81
2022/07/25 07:16:40;;;;;;;13.75;12.45;;;30.10;99.90;;;;;;8291992;28;20022;-80
2022/07/25 07:20:40;;;;;;;12.10;11.00;;;30.70;99.90;;;;;;8289996;28;20255;-81
2022/07/25 07:24:41;;;;;;;13.48;10.38;;;31.30;99.90;;;;;;8292320;28;20026;-80
2022/07/25 07:28:41;;;;;;;11.20;10.02;;;31.30;99.90;;;;;;8285374;28;20032;-81
2022/07/25 07:32:43;;;;;;;11.88;10.57;;;31.50;99.90;;;;;;8285105;28;20030;-81
2022/07/25 07:36:43;;;;;;;10.73;9.63;;;31.80;99.90;;;;;;8286873;28;20083;-81
2022/07/25 07:40:44;;;;;;;10.07;9.07;;;31.80;98.70;;;;;;8282791;28;20045;-81
2022/07/25 07:44:44;;;;;;;9.65;8.65;;;32.00;98.10;;;;;;8287926;28;20461;-81
2022/07/25 07:48:45;;;;;;;15.30;9.07;;;32.00;96.40;;;;;;8281039;28;20061;-81
2022/07/25 07:52:46;;;;;;;11.32;9.57;;;32.00;96.20;;;;;;8282536;28;20121;-81
2022/07/25 07:56:47;;;;;;;10.85;9.23;;;31.80;96.50;;;;;;8285760;28;20042;-82
2022/07/25 08:00:50;;;;;;;10.63;9.35;;;32.10;97.90;;;;;;8283969;28;20072;-81
2022/07/25 08:04:51;;;;;;;11.02;9.93;;;32.60;96.20;;;;;;8288299;28;20490;-81
2022/07/25 08:08:51;;;;;;;11.10;9.88;;;32.40;97.20;;;;;;8284393;28;20032;-81
2022/07/25 08:12:52;;;;;;;11.65;9.70;;;32.80;96.00;;;;;;8285025;28;20088;-81
2022/07/25 08:16:55;;;;;;;10.98;9.80;;;33.10;95.00;;;;;;8285651;28;20045;-80
2022/07/25 08:20:56;;;;;;;12.60;10.20;;;33.10;93.40;;;;;;8284159;28;20018;-82
2022/07/25 08:24:56;;;;;;;10.25;9.35;;;33.00;94.10;;;;;;8288888;28;20482;-81
2022/07/25 08:28:57;;;;;;;11.45;10.35;;;32.80;94.00;;;;;;8289280;28;20136;-81
2022/07/25 08:33:00;;;;;;;10.70;9.60;;;32.60;93.70;;;;;;8289772;28;20018;-81
2022/07/25 08:37:01;;;;;;;10.85;9.32;;;32.80;95.90;;;;;;8287187;28;20482;-81
2022/07/25 08:41:02;;;;;;;11.65;10.07;;;32.90;91.30;;;;;;8290098;28;20044;-81
2022/07/25 08:45:06;;;;;;;10.98;9.98;;;32.80;91.40;;;;;;8282980;28;20037;-81
2022/07/25 08:49:07;;;;;;;11.48;9.20;;;32.70;94.10;;;;;;8288317;28;20026;-80
2022/07/25 08:53:08;;;;;;;10.43;9.30;;;33.00;92.80;;;;;;8291400;28;20544;-81
2022/07/25 08:57:09;;;;;;;9.73;8.60;;;33.60;91.00;;;;;;8289806;28;20026;-81
2022/07/25 09:01:09;;;;;;;16.85;9.50;;;33.60;85.30;;;;;;8290613;28;20033;-81
2022/07/25 09:05:10;;;;;;;9.20;8.40;;;33.50;90.00;;;;;;8291572;28;20026;-81
2022/07/25 09:09:10;;;;;;;9.98;8.82;;;33.20;90.00;;;;;;8295042;28;20088;-81
2022/07/25 09:13:15;;;;;;;9.93;8.90;;;33.20;91.40;;;;;;8295046;28;20057;-81
2022/07/25 09:17:15;;;;;;;9.52;8.73;;;33.20;89.40;;;;;;8295008;28;20155;-83
2022/07/25 09:21:16;;;;;;;8.90;8.10;;;33.50;88.10;;;;;;8295574;28;20022;-83
2022/07/25 09:25:25;;;;;;;13.70;7.65;;;33.50;88.10;;;;;;8294957;28;20402;-83
2022/07/25 09:29:31;;;;;;;8.15;7.45;;;33.50;81.60;;;;;;8295424;28;20053;-83
2022/07/25 09:33:32;;;;;;;7.85;6.88;;;33.50;78.70;;;;;;8291233;28;20037;-82
2022/07/25 09:37:32;;;;;;;7.30;6.70;;;33.60;77.40;;;;;;8295520;28;20018;-83
2022/07/25 09:41:38;;;;;;;7.80;7.00;;;33.50;79.50;;;;;;8294934;28;20398;-82
2022/07/25 09:45:48;;;;;;;8.38;7.57;;;33.60;80.30;;;;;;8291681;28;20026;-82
2022/07/25 09:49:49;;;;;;;9.20;8.40;;;34.10;80.90;;;;;;8294705;28;20026;-83
2022/07/25 09:53:49;;;;;;;8.93;8.13;;;33.90;80.20;;;;;;8293491;28;20057;-83
2022/07/25 09:57:53;;;;;;;9.13;8.27;;;34.00;82.60;;;;;;8289449;28;20022;-83
2022/07/25 10:02:03;;;;;;;9.43;8.35;;;34.50;81.30;;;;;;8289374;28;20029;-81
2022/07/25 10:06:41;;;;;;;10.10;8.85;;;34.30;78.30;;;;;;8295357;28;20057;-81
2022/07/25 10:10:41;;;;;;;8.80;8.00;;;34.10;81.50;;;;;;8290429;28;20050;-82
2022/07/25 10:14:42;;;;;;;10.85;8.70;;;33.80;76.40;;;;;;8293138;28;20592;-83
2022/07/25 10:18:51;;;;;;;10.75;8.73;;;33.90;76.80;;;;;;8292920;28;20498;-83
2022/07/25 10:22:52;;;;;;;10.32;8.65;;;34.10;79.60;;;;;;8294230;28;20054;-82
2022/07/25 10:26:52;;;;;;;11.07;9.40;;;34.20;78.80;;;;;;8292704;28;20226;-82
2022/07/25 10:30:57;;;;;;;10.63;9.23;;;34.20;78.60;;;;;;8290719;28;20076;-82
2022/07/25 10:34:57;;;;;;;9.45;8.45;;;34.40;78.20;;;;;;8289343;28;20076;-82
2022/07/25 10:39:00;;;;;;;9.60;8.70;;;34.60;76.20;;;;;;8290350;28;20026;-81
2022/07/25 10:43:21;;;;;;;9.63;8.63;;;34.90;76.70;;;;;;8279742;28;20581;-82
2022/07/25 10:47:25;;;;;;;11.40;8.40;;;35.40;72.00;;;;;;8287335;28;20025;-82
2022/07/25 10:51:28;;;;;;;8.77;7.93;;;36.10;70.00;;;;;;8289924;28;20418;-82
2022/07/25 10:55:29;;;;;;;8.60;7.80;;;36.20;66.00;;;;;;8284851;28;20401;-81
2022/07/25 10:59:35;;;;;;;9.38;7.78;;;36.40;67.80;;;;;;8290806;28;20060;-82
2022/07/25 11:03:36;;;;;;;8.23;7.15;;;36.90;67.20;;;;;;8283434;28;20044;-81
2022/07/25 11:07:36;;;;;;;7.72;6.93;;;36.80;60.60;;;;;;8288494;28;20034;-82
2022/07/25 11:11:39;;;;;;;8.15;7.35;;;36.90;62.50;;;;;;8290616;28;20030;-82
2022/07/25 11:15:41;;;;;;;9.18;7.00;;;36.60;59.30;;;;;;8284390;28;20402;-82
2022/07/25 11:19:43;;;;;;;7.50;6.80;;;36.60;57.60;;;;;;8285070;28;20290;-82
2022/07/25 11:23:52;;;;;;;9.85;7.13;;;36.80;57.70;;;;;;8291414;28;20022;-82
2022/07/25 11:27:57;;;;;;;8.35;6.80;;;37.50;59.00;;;;;;8292077;28;20577;-81
2022/07/25 11:32:03;;;;;;;7.78;7.07;;;37.80;55.30;;;;;;8290898;28;20112;-82
2022/07/25 11:36:04;;;;;;;8.30;7.50;;;37.90;53.60;;;;;;8291660;28;20109;-82
2022/07/25 11:40:06;;;;;;;7.90;7.20;;;37.60;54.80;;;;;;8291038;28;20528;-82
2022/07/25 11:44:06;;;;;;;7.95;7.15;;;37.70;52.50;;;;;;8287056;28;20014;-82
2022/07/25 11:48:12;;;;;;;6.93;6.30;;;37.70;54.10;;;;;;8288576;28;20038;-82
2022/07/25 11:52:24;;;;;;;8.27;6.55;;;38.20;55.10;;;;;;8283643;28;20487;-82
2022/07/25 11:56:25;;;;;;;7.95;6.55;;;39.10;53.50;;;;;;8280976;28;20034;-82
2022/07/25 12:00:26;;;;;;;7.95;7.15;;;39.10;48.50;;;;;;8289253;28;20022;-81
2022/07/25 12:04:27;;;;;;;7.50;6.90;;;39.50;49.30;;;;;;8284996;28;20033;-81
2022/07/25 12:08:38;;;;;;;7.20;6.50;;;38.80;47.90;;;;;;8289953;28;20030;-81
2022/07/25 12:12:44;;;;;;;8.25;6.65;;;38.50;52.70;;;;;;8286067;28;20500;-80
2022/07/25 12:16:44;;;;;;;7.78;6.97;;;39.10;49.60;;;;;;8288376;28;20398;-81
2022/07/25 12:20:45;;;;;;;10.95;6.70;;;40.10;48.40;;;;;;8288081;28;20034;-81
2022/07/25 12:24:45;;;;;;;7.32;6.55;;;40.30;48.00;;;;;;8293774;28;20545;-81
2022/07/25 12:28:46;;;;;;;8.43;6.85;;;40.10;47.30;;;;;;8295763;28;20401;-81
2022/07/25 12:32:46;;;;;;;8.18;6.78;;;40.10;47.10;;;;;;8294952;28;20044;-81
2022/07/25 12:36:47;;;;;;;7.90;7.07;;;40.50;46.80;;;;;;8297365;28;20029;-81
2022/07/25 12:40:48;;;;;;;7.03;6.43;;;40.60;46.90;;;;;;8297645;28;20084;-82
2022/07/25 12:44:49;;;;;;;8.23;7.50;;;41.00;46.40;;;;;;8295427;28;20041;-81
2022/07/25 12:48:49;;;;;;;8.82;7.22;;;40.90;46.50;;;;;;8294776;28;20034;-82
2022/07/25 12:52:50;;;;;;;8.00;7.30;;;40.90;46.90;;;;;;8297230;28;20045;-80
2022/07/25 12:56:51;;;;;;;10.15;7.13;;;40.90;44.70;;;;;;8294494;28;20292;-81
2022/07/25 13:00:51;;;;;;;8.80;6.72;;;41.10;44.30;;;;;;8294062;28;20417;-82
2022/07/25 13:04:52;;;;;;;9.43;7.00;;;41.70;44.10;;;;;;8294992;28;20053;-81
2022/07/25 13:08:52;;;;;;;6.97;6.40;;;42.00;42.90;;;;;;8296850;28;20033;-81
2022/07/25 13:12:53;;;;;;;7.85;7.15;;;41.80;45.00;;;;;;8292825;28;20026;-81
2022/07/25 13:16:55;;;;;;;8.90;6.53;;;42.00;43.40;;;;;;8296752;28;20022;-81
2022/07/25 13:20:55;;;;;;;7.65;6.07;;;42.20;44.00;;;;;;8295808;28;20022;-81
2022/07/25 13:24:56;;;;;;;6.75;6.15;;;42.00;41.70;;;;;;8293030;28;20048;-82
2022/07/25 13:28:57;;;;;;;7.22;6.53;;;42.50;42.70;;;;;;8292623;28;20030;-81
2022/07/25 13:32:57;;;;;;;6.75;6.05;;;42.40;41.20;;;;;;8290884;28;20049;-81
2022/07/25 13:36:58;;;;;;;7.50;6.30;;;42.50;41.30;;;;;;8290657;28;20033;-81
2022/07/25 13:40:59;;;;;;;6.68;6.07;;;43.20;42.10;;;;;;8294270;28;20045;-81
2022/07/25 13:44:59;;;;;;;6.82;6.22;;;43.00;39.70;;;;;;8290498;28;20030;-81
2022/07/25 13:49:00;;;;;;;6.55;6.00;;;42.70;39.70;;;;;;8291233;28;20037;-82
2022/07/25 13:53:02;;;;;;;8.88;6.40;;;42.90;39.10;;;;;;8293028;28;20037;-81
2022/07/25 13:57:03;;;;;;;7.90;5.90;;;43.10;38.80;;;;;;8291728;28;20068;-81
2022/07/25 14:01:04;;;;;;;6.82;6.10;;;42.90;37.90;;;;;;8293290;28;20029;-82
2022/07/25 14:05:05;;;;;;;6.88;6.28;;;42.90;38.80;;;;;;8292292;28;20030;-81
2022/07/25 14:09:05;;;;;;;6.70;5.70;;;41.90;38.50;;;;;;8289566;28;20109;-81
2022/07/25 14:13:06;;;;;;;6.78;6.18;;;42.20;39.00;;;;;;8291293;28;20036;-80
2022/07/25 14:17:06;;;;;;;6.40;5.90;;;42.60;38.80;;;;;;8292985;28;20111;-81
2022/07/25 14:21:07;;;;;;;6.55;5.95;;;42.90;37.90;;;;;;8292780;28;20023;-81
2022/07/25 14:25:08;;;;;;;8.27;5.75;;;41.00;40.60;;;;;;8292947;28;20022;-82
2022/07/25 14:29:10;;;;;;;6.25;5.60;;;41.60;41.10;;;;;;8288172;28;20117;-82
2022/07/25 14:33:10;;;;;;;5.45;4.95;;;43.20;38.50;;;;;;8292522;28;20018;-81
2022/07/25 14:37:11;;;;;;;5.60;5.10;;;44.60;36.80;;;;;;8292100;28;20030;-81
2022/07/25 14:41:12;;;;;;;5.65;5.15;;;44.10;36.40;;;;;;8291939;28;20105;-82
2022/07/25 14:45:13;;;;;;;8.32;5.53;;;44.40;35.90;;;;;;8292952;28;20026;-81
2022/07/25 14:49:14;;;;;;;6.35;5.85;;;44.10;35.30;;;;;;8289622;28;20030;-81
2022/07/25 14:53:15;;;;;;;6.57;5.97;;;43.60;34.90;;;;;;8287662;28;20022;-82
2022/07/25 14:57:15;;;;;;;6.10;5.50;;;42.00;37.10;;;;;;8291794;28;20104;-82
2022/07/25 15:01:17;;;;;;;9.43;5.40;;;42.40;38.10;;;;;;8291101;28;20045;-81
2022/07/25 15:05:18;;;;;;;8.27;6.10;;;42.70;36.90;;;;;;8293365;28;20519;-81
2022/07/25 15:09:19;;;;;;;6.38;5.68;;;42.30;36.30;;;;;;8292756;28;20032;-81
2022/07/25 15:13:20;;;;;;;6.80;6.05;;;42.10;36.80;;;;;;8292405;28;20034;-82
2022/07/25 15:17:21;;;;;;;6.70;5.90;;;42.30;37.70;;;;;;8291065;28;20465;-82
2022/07/25 15:21:22;;;;;;;7.43;5.78;;;42.80;37.50;;;;;;8290017;28;20041;-81
2022/07/25 15:25:23;;;;;;;8.70;6.50;;;42.10;36.50;;;;;;8292858;28;20398;-82
2022/07/25 15:29:23;;;;;;;7.90;6.50;;;40.90;37.60;;;;;;8290636;28;20033;-82
2022/07/25 15:33:24;;;;;;;6.38;5.78;;;39.40;39.90;;;;;;8290178;28;20049;-82
2022/07/25 15:37:24;;;;;;;6.55;5.95;;;37.90;40.50;;;;;;8287852;28;20487;-82
2022/07/25 15:41:25;;;;;;;8.07;6.38;;;37.20;42.10;;;;;;8292012;28;20529;-81
2022/07/25 15:45:26;;;;;;;6.65;5.95;;;37.20;44.70;;;;;;8284021;28;20104;-81
2022/07/25 15:49:26;;;;;;;8.68;6.68;;;37.10;43.20;;;;;;8288367;28;20041;-81
2022/07/25 15:53:28;;;;;;;8.23;6.40;;;36.00;45.10;;;;;;8287622;28;20104;-83
2022/07/25 15:57:28;;;;;;;8.05;6.55;;;35.40;46.30;;;;;;8296557;28;20029;-82
2022/07/25 16:01:29;;;;;;;14.02;7.13;;;34.70;46.80;;;;;;8286104;28;20025;-82
2022/07/25 16:05:30;;;;;;;10.15;7.30;;;34.20;49.10;;;;;;8293558;28;20105;-81
2022/07/25 16:09:31;;;;;;;8.73;7.15;;;34.40;52.20;;;;;;8295036;28;20040;-81
2022/07/25 16:13:31;;;;;;;8.60;6.65;;;33.80;49.10;;;;;;8293955;28;20030;-81
2022/07/25 16:17:33;;;;;;;7.70;6.97;;;33.40;52.80;;;;;;8294549;28;20621;-80
2022/07/25 16:21:33;;;;;;;8.90;7.28;;;32.80;52.20;;;;;;8290591;28;20097;-81
2022/07/25 16:25:34;;;;;;;8.80;7.13;;;32.80;54.00;;;;;;8294748;28;20026;-81
2022/07/25 16:29:34;;;;;;;9.07;7.28;;;32.80;53.60;;;;;;8294441;28;20094;-81
2022/07/25 16:33:35;;;;;;;11.90;6.95;;;32.60;53.80;;;;;;8287475;28;20108;-81
2022/07/25 16:37:35;;;;;;;8.10;6.70;;;32.70;54.20;;;;;;8288323;28;20026;-81
2022/07/25 16:41:36;;;;;;;8.30;7.40;;;32.80;56.00;;;;;;8284333;28;20113;-82
2022/07/25 16:45:37;;;;;;;8.85;7.70;;;32.60;53.80;;;;;;8288032;28;20021;-81
2022/07/25 16:49:37;;;;;;;12.23;7.20;;;32.40;55.10;;;;;;8290707;28;20022;-80
2022/07/25 16:53:38;;;;;;;12.80;7.57;;;32.30;59.20;;;;;;8290896;28;20047;-81
2022/07/25 16:57:38;;;;;;;9.95;7.78;;;32.00;56.80;;;;;;8283663;28;20031;-81
2022/07/25 17:01:39;;;;;;;10.13;7.97;;;32.00;55.90;;;;;;8282247;28;20026;-81
2022/07/25 17:05:40;;;;;;;8.50;7.63;;;31.80;57.10;;;;;;8288174;28;20030;-81
2022/07/25 17:09:40;;;;;;;9.40;8.05;;;31.70;60.50;;;;;;8293328;28;20119;-82
2022/07/25 17:13:41;;;;;;;9.93;7.57;;;31.50;64.10;;;;;;8298719;28;20037;-81
2022/07/25 17:17:41;;;;;;;26.27;8.25;;;31.30;59.50;;;;;;8297104;28;20030;-81
2022/07/25 17:21:42;;;;;;;11.20;7.25;;;31.00;59.50;;;;;;8298048;28;20040;-82
2022/07/25 17:25:42;;;;;;;11.48;7.18;;;31.00;59.30;;;;;;8298044;28;20482;-82
2022/07/25 17:29:43;;;;;;;15.65;8.13;;;31.10;58.40;;;;;;8294418;28;20117;-81
2022/07/25 17:33:43;;;;;;;9.43;7.47;;;30.80;60.10;;;;;;8297112;28;20057;-82
2022/07/25 17:37:44;;;;;;;10.10;7.00;;;30.60;59.90;;;;;;8291822;28;20037;-82
2022/07/25 17:41:45;;;;;;;10.30;7.35;;;30.50;59.80;;;;;;8293305;28;20036;-80
2022/07/25 17:45:45;;;;;;;8.95;7.22;;;30.50;60.60;;;;;;8294779;28;20494;-81
2022/07/25 17:49:46;;;;;;;10.07;7.40;;;30.40;59.60;;;;;;8294658;28;20083;-82
2022/07/25 17:53:46;;;;;;;10.80;7.43;;;30.60;60.20;;;;;;8294124;28;20041;-82
2022/07/25 17:57:51;;;;;;;11.68;7.22;;;30.60;62.60;;;;;;8285999;28;20026;-82
2022/07/25 18:01:52;;;;;;;16.35;7.47;;;30.80;60.60;;;;;;8285377;28;20471;-82
2022/07/25 18:05:52;;;;;;;10.57;7.22;;;30.50;64.70;;;;;;8290430;28;20033;-82
2022/07/25 18:09:53;;;;;;;8.35;7.47;;;30.30;66.30;;;;;;8288991;28;20030;-83
2022/07/25 18:13:54;;;;;;;10.77;7.05;;;30.40;66.40;;;;;;8291494;28;20164;-81
2022/07/25 18:17:54;;;;;;;18.73;7.82;;;30.50;61.80;;;;;;8292500;28;20037;-82
2022/07/25 18:21:55;;;;;;;8.55;7.03;;;30.60;62.10;;;;;;8292513;28;20554;-82
2022/07/25 18:25:55;;;;;;;9.48;6.93;;;30.20;61.50;;;;;;8289210;28;20529;-80
2022/07/25 18:29:56;;;;;;;11.02;7.35;;;29.60;64.20;;;;;;8291889;28;20121;-81
2022/07/25 18:33:57;;;;;;;9.50;7.47;;;29.10;67.90;;;;;;8293622;28;20022;-81
2022/07/25 18:37:57;;;;;;;12.52;7.78;;;28.90;68.90;;;;;;8292734;28;20057;-81
2022/07/25 18:41:58;;;;;;;9.55;6.97;;;28.60;70.60;;;;;;8292085;28;20022;-81
2022/07/25 18:46:00;;;;;;;7.97;7.25;;;28.20;72.60;;;;;;8293682;28;20486;-81
2022/07/25 18:50:02;;;;;;;7.90;7.10;;;27.90;72.90;;;;;;8289983;28;20026;-80
2022/07/25 18:54:03;;;;;;;9.40;7.45;;;27.60;73.70;;;;;;8291655;28;20100;-81
2022/07/25 18:58:03;;;;;;;10.48;7.22;;;27.40;74.40;;;;;;8293417;28;20017;-81
2022/07/25 19:02:04;;;;;;;11.48;7.78;;;27.20;74.80;;;;;;8292023;28;20018;-81
2022/07/25 19:06:07;;;;;;;8.77;7.25;;;26.90;76.50;;;;;;8292185;28;20065;-82
2022/07/25 19:10:08;;;;;;;9.75;7.45;;;26.80;76.40;;;;;;8284951;28;20026;-82
2022/07/25 19:14:09;;;;;;;12.65;6.97;;;26.60;79.40;;;;;;8291196;28;20097;-81
2022/07/25 19:18:09;;;;;;;8.73;7.30;;;26.50;78.50;;;;;;8289358;28;20246;-81
2022/07/25 19:22:10;;;;;;;12.23;7.80;;;26.30;79.50;;;;;;8287836;28;20021;-82
2022/07/25 19:26:11;;;;;;;8.80;7.25;;;26.00;82.60;;;;;;8292446;28;20044;-81
2022/07/25 19:30:11;;;;;;;10.20;6.57;;;26.00;82.80;;;;;;8287567;28;20384;-81
2022/07/25 19:34:12;;;;;;;10.70;7.47;;;26.00;83.50;;;;;;8284910;28;20433;-82
2022/07/25 19:38:12;;;;;;;8.85;7.43;;;26.00;82.90;;;;;;8287844;28;20075;-81
2022/07/25 19:42:13;;;;;;;12.02;7.22;;;26.20;83.30;;;;;;8293039;28;20076;-81
2022/07/25 19:46:13;;;;;;;11.13;7.88;;;26.00;85.90;;;;;;8288572;28;20029;-81
2022/07/25 19:50:14;;;;;;;9.77;7.75;;;25.60;90.20;;;;;;8288961;28;20030;-81
2022/07/25 19:54:14;;;;;;;25.05;7.82;;;24.90;92.00;;;;;;8283527;28;20442;-81
2022/07/25 19:58:15;;;;;;;22.38;8.27;;;24.70;94.30;;;;;;8285863;28;20487;-80
2022/07/25 20:02:15;;;;;;;12.35;9.15;;;24.20;98.80;;;;;;8288883;28;20029;-79
2022/07/25 20:06:19;;;;;;;10.45;8.70;;;23.50;99.90;;;;;;8289796;28;20034;-80
2022/07/25 20:10:19;;;;;;;9.95;8.90;;;22.90;99.90;;;;;;8290875;28;20049;-80
2022/07/25 20:14:20;;;;;;;11.80;9.15;;;22.60;99.90;;;;;;8290525;28;20030;-81
2022/07/25 20:18:20;;;;;;;11.02;8.55;;;22.70;99.90;;;;;;8287073;28;20188;-80
2022/07/25 20:22:21;;;;;;;15.18;8.85;;;22.50;99.90;;;;;;8289065;28;20026;-80
2022/07/25 20:26:22;;;;;;;44.63;11.52;;;22.60;99.90;;;;;;8292132;28;20305;-78
2022/07/25 20:30:22;;;;;;;19.70;11.60;;;22.30;99.90;;;;;;8287399;28;20024;-80
2022/07/25 20:34:23;;;;;;;13.43;11.27;;;21.70;99.90;;;;;;8287657;28;20026;-80
2022/07/25 20:38:27;;;;;;;13.38;11.00;;;21.30;99.90;;;;;;8288790;28;20397;-80
2022/07/25 20:42:27;;;;;;;15.38;10.35;;;21.20;99.90;;;;;;8292293;28;20041;-79